createdAt,value
2022-08-19T00:01:38.208Z,17.21
2022-08-19T00:04:08.072Z,17.22
2022-08-19T00:06:36.544Z,17.25
2022-08-19T00:09:06.250Z,17.23
2022-08-19T00:11:33.265Z,17.25
2022-08-19T00:14:00.097Z,17.22
2022-08-19T00:16:27.607Z,17.13
2022-08-19T00:18:56.466Z,17.14
2022-08-19T00:21:25.790Z,17.14
2022-08-19T00:23:53.384Z,17.12
2022-08-19T00:26:21.217Z,17.11
2022-08-19T00:28:48.125Z,17.08
2022-08-19T00:31:15.042Z,17.06
2022-08-19T00:33:41.812Z,17.03
2022-08-19T00:36:10.453Z,17.00
2022-08-19T00:38:39.369Z,16.98
2022-08-19T00:41:07.171Z,16.92
2022-08-19T00:43:34.026Z,16.87
2022-08-19T00:46:02.527Z,16.87
2022-08-19T00:48:29.603Z,16.83
2022-08-19T00:50:56.723Z,16.82
2022-08-19T00:53:27.485Z,16.82
2022-08-19T00:55:57.401Z,16.86
2022-08-19T00:58:29.926Z,16.84
2022-08-19T01:00:57.117Z,16.82
2022-08-19T01:03:24.373Z,16.83
2022-08-19T01:05:54.375Z,16.84
2022-08-19T01:08:21.907Z,16.83
2022-08-19T01:10:57.209Z,16.84
2022-08-19T01:13:27.656Z,16.81
2022-08-19T01:16:04.856Z,16.78
2022-08-19T01:18:33.808Z,16.77
2022-08-19T01:21:12.053Z,16.73
2022-08-19T01:23:45.185Z,16.72
2022-08-19T01:26:19.330Z,16.69
2022-08-19T01:28:48.357Z,16.66
2022-08-19T01:31:26.939Z,16.62
2022-08-19T01:33:57.107Z,16.63
2022-08-19T01:36:39.823Z,16.57
2022-08-19T01:39:10.580Z,16.45
2022-08-19T01:41:37.651Z,16.45
2022-08-19T01:44:17.316Z,16.43
2022-08-19T01:46:48.451Z,16.40
2022-08-19T01:49:16.760Z,16.41
2022-08-19T01:51:44.172Z,16.41
2022-08-19T01:54:13.962Z,16.39
2022-08-19T01:56:55.878Z,16.34
2022-08-19T01:59:24.697Z,16.30
2022-08-19T02:01:51.534Z,16.22
2022-08-19T02:04:18.550Z,16.22
2022-08-19T02:06:45.523Z,16.24
2022-08-19T02:09:12.754Z,16.20
2022-08-19T02:11:40.235Z,16.18
2022-08-19T02:14:08.847Z,16.16
2022-08-19T02:16:37.830Z,16.12
2022-08-19T02:19:05.764Z,16.13
2022-08-19T02:21:33.489Z,16.14
2022-08-19T02:24:00.933Z,16.11
2022-08-19T02:26:28.019Z,16.11
2022-08-19T02:28:55.895Z,16.07
2022-08-19T02:31:25.855Z,16.05
2022-08-19T02:33:56.594Z,15.99
2022-08-19T02:36:26.127Z,15.93
2022-08-19T02:38:54.807Z,15.92
2022-08-19T02:41:28.728Z,15.94
2022-08-19T02:44:26.824Z,15.94
2022-08-19T02:46:51.710Z,15.97
2022-08-19T02:49:19.993Z,16.05
2022-08-19T02:51:47.296Z,16.06
2022-08-19T02:54:15.514Z,16.08
2022-08-19T02:56:44.097Z,16.08
2022-08-19T02:59:13.173Z,16.08
2022-08-19T03:01:43.121Z,16.07
2022-08-19T03:04:14.134Z,16.07
2022-08-19T03:06:44.119Z,16.13
2022-08-19T03:09:12.064Z,16.20
2022-08-19T03:11:39.836Z,16.26
2022-08-19T03:14:09.531Z,16.32
2022-08-19T03:16:43.256Z,16.29
2022-08-19T03:19:10.370Z,16.30
2022-08-19T03:21:37.519Z,16.30
2022-08-19T03:24:08.288Z,16.35
2022-08-19T03:26:39.152Z,16.35
2022-08-19T03:29:06.784Z,16.33
2022-08-19T03:31:43.455Z,16.35
2022-08-19T03:34:23.783Z,16.36
2022-08-19T03:36:50.753Z,16.36
2022-08-19T03:39:17.659Z,16.36
2022-08-19T03:41:48.425Z,16.33
2022-08-19T03:44:19.391Z,16.31
2022-08-19T03:46:49.196Z,16.29
2022-08-19T03:49:18.367Z,16.26
2022-08-19T03:51:46.976Z,16.25
2022-08-19T03:54:15.554Z,16.20
2022-08-19T03:56:44.938Z,16.17
2022-08-19T03:59:16.432Z,16.15
2022-08-19T04:01:44.151Z,16.14
2022-08-19T04:04:11.590Z,16.16
2022-08-19T04:06:40.406Z,16.19
2022-08-19T04:09:10.628Z,16.19
2022-08-19T04:11:49.264Z,16.19
2022-08-19T04:14:19.433Z,16.24
2022-08-19T04:16:48.262Z,16.29
2022-08-19T04:19:16.879Z,16.33
2022-08-19T04:21:46.293Z,16.32
2022-08-19T04:24:14.828Z,16.38
2022-08-19T04:26:42.828Z,16.37
2022-08-19T04:29:13.270Z,16.34
2022-08-19T04:31:42.023Z,16.39
2022-08-19T04:34:12.021Z,16.42
2022-08-19T04:36:42.208Z,16.46
2022-08-19T04:39:16.926Z,16.53
2022-08-19T04:42:03.671Z,16.56
2022-08-19T04:44:36.313Z,16.58
2022-08-19T04:47:11.842Z,16.57
2022-08-19T04:49:38.709Z,16.58
2022-08-19T04:52:05.654Z,16.63
2022-08-19T04:54:37.353Z,16.67
2022-08-19T04:57:10.939Z,16.71
2022-08-19T04:59:39.360Z,16.74
2022-08-19T05:02:09.381Z,16.73
2022-08-19T05:04:39.915Z,16.74
2022-08-19T05:07:08.645Z,16.79
2022-08-19T05:09:58.509Z,16.84
2022-08-19T05:12:22.715Z,16.87
2022-08-19T05:14:57.901Z,16.93
2022-08-19T05:17:28.007Z,16.98
2022-08-19T05:20:15.603Z,17.02
2022-08-19T05:22:44.822Z,17.05
2022-08-19T05:25:16.777Z,17.13
2022-08-19T05:27:44.234Z,17.20
2022-08-19T05:30:12.448Z,17.28
2022-08-19T05:32:40.536Z,17.35
2022-08-19T05:35:08.058Z,17.39
2022-08-19T05:37:35.292Z,17.47
2022-08-19T05:40:02.648Z,17.55
2022-08-19T05:42:29.584Z,17.60
2022-08-19T05:44:57.126Z,17.69
2022-08-19T05:47:24.119Z,17.77
2022-08-19T05:49:51.972Z,17.87
2022-08-19T05:52:25.418Z,17.93
2022-08-19T05:54:55.985Z,17.99
2022-08-19T05:57:24.605Z,18.10
2022-08-19T05:59:53.299Z,18.18
2022-08-19T06:02:27.551Z,18.27
2022-08-19T06:04:54.462Z,18.36
2022-08-19T06:07:21.375Z,18.45
2022-08-19T06:09:59.096Z,18.54
2022-08-19T06:12:35.056Z,18.66
2022-08-19T06:15:06.284Z,18.74
2022-08-19T06:17:33.146Z,18.83
2022-08-19T06:20:00.210Z,18.91
2022-08-19T06:22:28.070Z,18.96
2022-08-19T06:24:56.301Z,18.96
2022-08-19T06:27:23.531Z,19.00
2022-08-19T06:29:50.664Z,19.09
2022-08-19T06:32:19.815Z,19.17
2022-08-19T06:34:47.253Z,19.23
2022-08-19T06:37:14.941Z,19.29
2022-08-19T06:39:44.250Z,19.37
2022-08-19T06:42:14.330Z,19.45
2022-08-19T06:44:48.322Z,19.48
2022-08-19T06:47:23.396Z,19.55
2022-08-19T06:49:54.854Z,19.66
2022-08-19T06:52:27.710Z,19.73
2022-08-19T06:54:57.198Z,19.84
2022-08-19T06:57:27.461Z,19.91
2022-08-19T06:59:54.410Z,19.95
2022-08-19T07:02:21.790Z,20.05
2022-08-19T07:04:52.739Z,20.12
2022-08-19T07:07:21.799Z,20.17
2022-08-19T07:09:58.606Z,20.25
2022-08-19T07:12:30.587Z,20.37
2022-08-19T07:14:58.863Z,20.42
2022-08-19T07:17:26.367Z,20.52
2022-08-19T07:19:54.526Z,20.61
2022-08-19T07:22:24.400Z,20.72
2022-08-19T07:24:53.606Z,20.82
2022-08-19T07:27:24.794Z,20.98
2022-08-19T07:29:55.761Z,21.01
2022-08-19T07:32:23.754Z,21.09
2022-08-19T07:34:50.828Z,21.20
2022-08-19T07:37:18.011Z,21.27
2022-08-19T07:39:45.056Z,21.38
2022-08-19T07:42:13.359Z,21.55
2022-08-19T07:44:41.533Z,21.65
2022-08-19T07:47:08.444Z,21.79
2022-08-19T07:49:55.514Z,21.88
2022-08-19T07:52:23.418Z,21.95
2022-08-19T07:54:50.848Z,22.00
2022-08-19T07:57:19.508Z,22.07
2022-08-19T07:59:46.744Z,22.17
2022-08-19T08:02:13.990Z,22.31
2022-08-19T08:04:59.542Z,22.44
2022-08-19T08:07:46.173Z,22.47
2022-08-19T08:10:21.164Z,22.61
2022-08-19T08:12:58.359Z,22.71
2022-08-19T08:15:41.365Z,22.75
2022-08-19T08:18:09.756Z,22.85
2022-08-19T08:20:36.905Z,22.97
2022-08-19T08:23:22.771Z,22.99
2022-08-19T08:25:50.640Z,23.04
2022-08-19T08:28:18.671Z,23.20
2022-08-19T08:30:49.139Z,23.30
2022-08-19T08:33:33.036Z,23.36
2022-08-19T08:36:09.714Z,23.41
2022-08-19T08:38:40.139Z,23.53
2022-08-19T08:41:20.508Z,23.78
2022-08-19T08:43:49.972Z,23.80
2022-08-19T08:46:30.961Z,23.80
2022-08-19T08:49:12.393Z,23.82
2022-08-19T08:51:59.599Z,24.06
2022-08-19T08:54:32.052Z,24.31
2022-08-19T08:57:03.644Z,24.57
2022-08-19T08:59:38.394Z,24.87
2022-08-19T09:02:05.729Z,25.00
2022-08-19T09:04:32.746Z,24.98
2022-08-19T09:07:35.247Z,25.16
2022-08-19T09:10:21.139Z,25.31
2022-08-19T09:12:58.821Z,25.62
2022-08-19T09:15:41.756Z,25.85
2022-08-19T09:18:09.887Z,25.98
2022-08-19T09:20:43.096Z,25.88
2022-08-19T09:23:11.887Z,25.80
2022-08-19T09:25:41.139Z,25.97
2022-08-19T09:28:22.422Z,26.15
2022-08-19T09:30:54.026Z,26.13
2022-08-19T09:33:21.319Z,26.35
2022-08-19T09:35:53.088Z,26.42
2022-08-19T09:38:22.213Z,26.53
2022-08-19T09:40:51.024Z,26.46
2022-08-19T09:43:33.338Z,26.26
2022-08-19T09:46:02.487Z,26.54
2022-08-19T09:48:29.894Z,26.96
2022-08-19T09:51:06.611Z,27.12
2022-08-19T09:53:33.604Z,27.06
2022-08-19T09:56:01.375Z,27.19
2022-08-19T09:58:34.393Z,27.10
2022-08-19T10:01:03.357Z,27.07
2022-08-19T10:03:32.517Z,26.90
2022-08-19T10:06:02.260Z,26.64
2022-08-19T10:08:32.160Z,26.66
2022-08-19T10:11:00.149Z,26.79
2022-08-19T10:13:47.677Z,27.23
2022-08-19T10:16:18.852Z,27.66
2022-08-19T10:18:49.741Z,28.15
2022-08-19T10:21:24.241Z,28.27
2022-08-19T10:23:58.493Z,28.50
2022-08-19T10:26:32.402Z,28.71
2022-08-19T10:28:59.711Z,29.07
2022-08-19T10:32:01.830Z,28.94
2022-08-19T10:34:27.103Z,28.52
2022-08-19T10:36:56.303Z,27.92
2022-08-19T10:39:23.831Z,27.96
2022-08-19T10:41:57.895Z,27.95
2022-08-19T10:44:25.384Z,27.76
2022-08-19T10:46:59.952Z,27.70
2022-08-19T10:49:28.018Z,28.01
2022-08-19T10:52:18.969Z,28.28
2022-08-19T10:55:08.313Z,28.23
2022-08-19T10:58:03.815Z,28.10
2022-08-19T11:00:24.641Z,28.37
2022-08-19T11:02:52.122Z,28.50
2022-08-19T11:05:20.075Z,28.45
2022-08-19T11:07:47.156Z,28.35
2022-08-19T11:10:20.899Z,28.08
2022-08-19T11:12:49.359Z,28.01
2022-08-19T11:15:16.695Z,28.22
2022-08-19T11:17:44.816Z,28.89
2022-08-19T11:20:14.354Z,29.11
2022-08-19T11:22:42.508Z,28.94
2022-08-19T11:25:11.763Z,28.75
2022-08-19T11:27:44.197Z,28.31
2022-08-19T11:30:14.219Z,28.08
2022-08-19T11:32:48.505Z,28.11
2022-08-19T11:35:17.251Z,28.09
2022-08-19T11:37:44.423Z,28.23
2022-08-19T11:40:12.248Z,28.19
2022-08-19T11:42:58.104Z,27.82
2022-08-19T11:45:27.640Z,27.64
2022-08-19T11:47:54.861Z,27.50
2022-08-19T11:50:22.199Z,27.38
2022-08-19T11:52:50.812Z,27.38
2022-08-19T11:55:17.849Z,27.46
2022-08-19T11:57:44.751Z,27.50
2022-08-19T12:00:14.261Z,27.63
2022-08-19T12:02:41.609Z,27.60
2022-08-19T12:05:12.238Z,27.56
2022-08-19T12:07:40.855Z,27.89
2022-08-19T12:10:08.353Z,28.10
2022-08-19T12:12:35.442Z,28.33
2022-08-19T12:15:03.223Z,28.17
2022-08-19T12:17:31.818Z,28.15
2022-08-19T12:19:58.714Z,28.64
2022-08-19T12:22:25.889Z,28.84
2022-08-19T12:24:54.218Z,29.01
2022-08-19T12:27:40.138Z,29.13
2022-08-19T12:30:10.930Z,29.04
2022-08-19T12:32:38.318Z,28.70
2022-08-19T12:35:06.503Z,28.69
2022-08-19T12:37:33.953Z,28.76
2022-08-19T12:40:00.875Z,28.63
2022-08-19T12:42:27.950Z,28.44
2022-08-19T12:44:55.030Z,28.41
2022-08-19T12:47:22.227Z,28.36
2022-08-19T12:49:54.093Z,28.21
2022-08-19T12:52:24.642Z,28.08
2022-08-19T12:54:54.504Z,27.92
2022-08-19T12:57:32.631Z,27.84
2022-08-19T13:00:12.721Z,27.52
2022-08-19T13:02:41.876Z,27.30
2022-08-19T13:05:12.567Z,27.07
2022-08-19T13:07:40.791Z,27.06
2022-08-19T13:10:10.189Z,27.09
2022-08-19T13:12:37.296Z,27.17
2022-08-19T13:15:10.656Z,27.15
2022-08-19T13:17:39.215Z,27.02
2022-08-19T13:20:08.920Z,26.89
2022-08-19T13:22:38.844Z,26.83
2022-08-19T13:25:07.433Z,27.08
2022-08-19T13:27:34.985Z,27.43
2022-08-19T13:30:21.128Z,27.63
2022-08-19T13:33:06.116Z,27.74
2022-08-19T13:35:33.615Z,27.52
2022-08-19T13:38:05.900Z,27.32
2022-08-19T13:40:39.952Z,27.33
2022-08-19T13:43:17.818Z,27.33
2022-08-19T13:45:50.786Z,27.14
2022-08-19T13:48:18.437Z,27.05
2022-08-19T13:50:47.730Z,26.89
2022-08-19T13:53:16.066Z,26.76
2022-08-19T13:55:44.752Z,26.58
2022-08-19T13:58:12.970Z,26.51
2022-08-19T14:00:44.005Z,26.53
2022-08-19T14:03:11.078Z,26.58
2022-08-19T14:05:39.536Z,26.58
2022-08-19T14:08:06.744Z,26.40
2022-08-19T14:10:34.303Z,26.22
2022-08-19T14:13:04.366Z,26.08
2022-08-19T14:15:31.805Z,26.07
2022-08-19T14:17:59.374Z,26.19
2022-08-19T14:20:26.509Z,26.39
2022-08-19T14:22:54.979Z,26.63
2022-08-19T14:25:25.235Z,26.94
2022-08-19T14:27:52.253Z,27.29
2022-08-19T14:30:23.813Z,27.77
2022-08-19T14:32:50.693Z,27.98
2022-08-19T14:35:17.778Z,28.36
2022-08-19T14:37:46.548Z,29.01
2022-08-19T14:40:17.848Z,29.50
2022-08-19T14:42:45.265Z,29.44
2022-08-19T14:45:12.956Z,29.04
2022-08-19T14:47:40.986Z,28.62
2022-08-19T14:50:18.311Z,28.40
2022-08-19T14:52:49.606Z,28.54
2022-08-19T14:55:18.285Z,28.69
2022-08-19T14:57:46.145Z,29.04
2022-08-19T15:00:14.416Z,29.18
2022-08-19T15:02:42.779Z,29.00
2022-08-19T15:05:10.045Z,29.06
2022-08-19T15:07:38.141Z,29.24
2022-08-19T15:10:07.942Z,29.34
2022-08-19T15:12:36.183Z,28.80
2022-08-19T15:15:03.629Z,28.88
2022-08-19T15:17:43.449Z,29.33
2022-08-19T15:20:16.063Z,29.64
2022-08-19T15:22:43.474Z,29.33
2022-08-19T15:25:12.677Z,29.15
2022-08-19T15:27:41.830Z,28.97
2022-08-19T15:30:10.877Z,28.67
2022-08-19T15:32:39.251Z,28.24
2022-08-19T15:35:08.124Z,28.12
2022-08-19T15:37:37.039Z,28.44
2022-08-19T15:40:07.577Z,28.22
2022-08-19T15:42:37.629Z,28.75
2022-08-19T15:45:08.307Z,28.73
2022-08-19T15:47:35.859Z,28.36
2022-08-19T15:50:32.276Z,28.94
2022-08-19T15:53:04.247Z,29.26
2022-08-19T15:55:34.823Z,29.05
2022-08-19T15:58:20.556Z,28.62
2022-08-19T16:01:16.289Z,28.56
2022-08-19T16:04:03.799Z,28.82
2022-08-19T16:06:31.886Z,28.74
2022-08-19T16:09:02.015Z,28.80
2022-08-19T16:11:32.031Z,28.34
2022-08-19T16:14:00.182Z,28.14
2022-08-19T16:16:33.743Z,27.97
2022-08-19T16:19:04.021Z,27.98
2022-08-19T16:21:33.322Z,27.94
2022-08-19T16:24:03.416Z,27.79
2022-08-19T16:26:31.652Z,28.13
2022-08-19T16:28:59.814Z,28.24
2022-08-19T16:31:27.683Z,27.99
2022-08-19T16:33:55.332Z,27.31
2022-08-19T16:36:24.314Z,27.00
2022-08-19T16:38:52.886Z,26.82
2022-08-19T16:41:21.017Z,26.87
2022-08-19T16:43:52.675Z,26.78
2022-08-19T16:46:22.635Z,26.84
2022-08-19T16:48:50.259Z,26.73
2022-08-19T16:51:18.288Z,26.66
2022-08-19T16:53:45.717Z,26.43
2022-08-19T16:56:13.117Z,26.05
2022-08-19T16:58:40.950Z,25.96
2022-08-19T17:01:10.330Z,25.85
2022-08-19T17:03:39.976Z,25.91
2022-08-19T17:06:20.564Z,26.02
2022-08-19T17:08:50.001Z,26.02
2022-08-19T17:11:19.139Z,25.89
2022-08-19T17:13:47.769Z,25.74
2022-08-19T17:16:25.135Z,25.71
2022-08-19T17:18:54.326Z,25.66
2022-08-19T17:21:24.051Z,25.74
2022-08-19T17:23:51.060Z,25.69
2022-08-19T17:26:18.818Z,25.70
2022-08-19T17:28:51.423Z,25.53
2022-08-19T17:31:21.566Z,25.22
2022-08-19T17:33:49.117Z,25.21
2022-08-19T17:36:28.290Z,25.35
2022-08-19T17:38:57.406Z,25.46
2022-08-19T17:41:26.865Z,25.35
2022-08-19T17:43:55.036Z,25.21
2022-08-19T17:46:22.030Z,25.01
2022-08-19T17:48:52.680Z,24.88
2022-08-19T17:51:52.395Z,24.71
2022-08-19T17:54:19.906Z,24.51
2022-08-19T17:56:47.473Z,24.45
2022-08-19T17:59:15.653Z,24.39
2022-08-19T18:01:53.429Z,24.36
2022-08-19T18:04:26.139Z,24.37
2022-08-19T18:06:55.154Z,24.34
2022-08-19T18:09:25.113Z,24.17
2022-08-19T18:11:54.488Z,24.16
2022-08-19T18:14:32.790Z,24.15
2022-08-19T18:17:12.791Z,24.06
2022-08-19T18:19:43.333Z,24.05
2022-08-19T18:22:29.363Z,24.00
2022-08-19T18:24:57.631Z,23.98
2022-08-19T18:27:25.867Z,23.89
2022-08-19T18:29:59.233Z,23.84
2022-08-19T18:32:34.544Z,23.75
2022-08-19T18:35:04.423Z,23.68
2022-08-19T18:37:31.335Z,23.71
2022-08-19T18:40:17.268Z,23.67
2022-08-19T18:43:04.475Z,23.70
2022-08-19T18:45:50.037Z,23.69
2022-08-19T18:48:35.609Z,23.66
2022-08-19T18:51:02.988Z,23.67
2022-08-19T18:53:33.157Z,23.65
2022-08-19T18:56:00.207Z,23.58
2022-08-19T18:58:35.119Z,23.53
2022-08-19T19:01:21.318Z,23.47
2022-08-19T19:03:53.959Z,23.50
2022-08-19T19:06:24.716Z,23.50
2022-08-19T19:08:53.314Z,23.46
2022-08-19T19:11:24.251Z,23.37
2022-08-19T19:13:52.016Z,23.37
2022-08-19T19:16:23.742Z,23.35
2022-08-19T19:18:52.407Z,23.33
2022-08-19T19:21:23.104Z,23.30
2022-08-19T19:23:50.969Z,23.31
2022-08-19T19:26:18.089Z,23.31
2022-08-19T19:28:47.954Z,23.27
2022-08-19T19:31:18.086Z,23.21
2022-08-19T19:33:45.822Z,23.18
2022-08-19T19:36:13.028Z,23.05
2022-08-19T19:38:47.706Z,23.01
2022-08-19T19:41:19.933Z,22.99
2022-08-19T19:43:46.956Z,23.00
2022-08-19T19:46:15.572Z,22.95
2022-08-19T19:48:42.839Z,22.89
2022-08-19T19:51:10.432Z,22.87
2022-08-19T19:53:37.514Z,22.83
2022-08-19T19:56:05.279Z,22.79
2022-08-19T19:58:35.680Z,22.79
2022-08-19T20:01:08.066Z,22.73
2022-08-19T20:03:36.631Z,22.74
2022-08-19T20:06:03.483Z,22.74
2022-08-19T20:08:49.263Z,22.65
2022-08-19T20:11:29.095Z,22.66
2022-08-19T20:13:56.118Z,22.66
2022-08-19T20:16:25.391Z,22.65
2022-08-19T20:18:52.652Z,22.66
2022-08-19T20:21:26.103Z,22.67
2022-08-19T20:24:08.871Z,22.70
2022-08-19T20:26:37.086Z,22.66
2022-08-19T20:29:11.244Z,22.61
2022-08-19T20:31:57.265Z,22.53
2022-08-19T20:34:24.918Z,22.46
2022-08-19T20:36:52.118Z,22.36
2022-08-19T20:39:19.006Z,22.29
2022-08-19T20:41:45.781Z,22.14
2022-08-19T20:44:12.853Z,22.02
2022-08-19T20:46:39.985Z,21.93
2022-08-19T20:49:08.191Z,21.83
2022-08-19T20:51:35.567Z,21.75
2022-08-19T20:54:02.522Z,21.68
2022-08-19T20:56:29.685Z,21.64
2022-08-19T20:59:00.194Z,21.56
2022-08-19T21:01:27.166Z,21.50
2022-08-19T21:03:54.075Z,21.44
2022-08-19T21:06:22.112Z,21.40
2022-08-19T21:08:50.073Z,21.34
2022-08-19T21:11:20.629Z,21.27
2022-08-19T21:13:48.414Z,21.22
2022-08-19T21:16:15.286Z,21.18
2022-08-19T21:18:42.045Z,21.15
2022-08-19T21:21:09.612Z,21.11
2022-08-19T21:23:36.421Z,21.05
2022-08-19T21:26:03.587Z,20.98
2022-08-19T21:28:36.123Z,20.93
2022-08-19T21:31:05.627Z,20.92
2022-08-19T21:33:32.940Z,20.89
2022-08-19T21:36:00.258Z,20.86
2022-08-19T21:38:27.543Z,20.83
2022-08-19T21:40:55.042Z,20.87
2022-08-19T21:43:22.683Z,20.87
2022-08-19T21:45:51.023Z,20.83
2022-08-19T21:48:18.214Z,20.84
2022-08-19T21:50:48.392Z,20.81
2022-08-19T21:53:19.655Z,20.79
2022-08-19T21:55:53.349Z,20.72
2022-08-19T21:58:28.233Z,20.69
2022-08-19T22:01:05.572Z,20.67
2022-08-19T22:03:33.574Z,20.61
2022-08-19T22:06:00.332Z,20.58
2022-08-19T22:08:27.354Z,20.56
2022-08-19T22:10:54.339Z,20.51
2022-08-19T22:13:21.230Z,20.47
2022-08-19T22:15:51.834Z,20.44
2022-08-19T22:18:19.199Z,20.40
2022-08-19T22:20:47.825Z,20.37
2022-08-19T22:23:14.793Z,20.38
2022-08-19T22:25:45.441Z,20.35
2022-08-19T22:28:18.802Z,20.29
2022-08-19T22:30:47.316Z,20.29
2022-08-19T22:33:19.720Z,20.24
2022-08-19T22:35:47.477Z,20.24
2022-08-19T22:38:15.346Z,20.24
2022-08-19T22:40:47.278Z,20.24
2022-08-19T22:43:20.685Z,20.31
2022-08-19T22:45:49.292Z,20.32
2022-08-19T22:48:19.533Z,20.32
2022-08-19T22:51:07.482Z,20.31
2022-08-19T22:53:36.880Z,20.29
2022-08-19T22:56:06.124Z,20.30
2022-08-19T22:58:33.613Z,20.34
2022-08-19T23:01:01.644Z,20.37
2022-08-19T23:03:28.907Z,20.40
2022-08-19T23:05:56.364Z,20.45
2022-08-19T23:08:24.189Z,20.49
2022-08-19T23:10:51.377Z,20.51
2022-08-19T23:13:18.474Z,20.52
2022-08-19T23:15:46.891Z,20.54
2022-08-19T23:18:14.547Z,20.54
2022-08-19T23:20:43.290Z,20.53
2022-08-19T23:23:13.217Z,20.52
2022-08-19T23:25:40.543Z,20.52
2022-08-19T23:28:26.003Z,20.48
2022-08-19T23:30:53.650Z,20.45
2022-08-19T23:33:26.661Z,20.42
2022-08-19T23:36:16.784Z,20.36
2022-08-19T23:38:46.499Z,20.32
2022-08-19T23:41:14.767Z,20.28
2022-08-19T23:43:42.984Z,20.21
2022-08-19T23:46:12.939Z,20.17
2022-08-19T23:48:39.982Z,20.10
2022-08-19T23:51:09.984Z,20.05
2022-08-19T23:53:38.602Z,20.01
2022-08-19T23:56:07.446Z,19.99
2022-08-19T23:58:36.128Z,19.93
